createdAt,value
2018-11-26T00:00:21.168Z,95479.03
2018-11-26T00:02:48.921Z,95477.95
2018-11-26T00:05:16.235Z,95475.81
2018-11-26T00:07:43.485Z,95470.77
2018-11-26T00:10:22.018Z,95475.11
2018-11-26T00:12:49.262Z,95481.47
2018-11-26T00:15:16.530Z,95459.33
2018-11-26T00:17:43.741Z,95474.55
2018-11-26T00:20:11.040Z,95473.17
2018-11-26T00:22:38.270Z,95474.91
2018-11-26T00:25:06.029Z,95474.27
2018-11-26T00:27:33.344Z,95484.22
2018-11-26T00:30:00.591Z,95478.98
2018-11-26T00:32:27.823Z,95471.88
2018-11-26T00:34:55.018Z,95469.49
2018-11-26T00:37:22.240Z,95466.73
2018-11-26T00:39:49.516Z,95463.41
2018-11-26T00:42:16.769Z,95459.55
2018-11-26T00:44:43.994Z,95458.05
2018-11-26T00:47:11.225Z,95461.12
2018-11-26T00:49:38.417Z,95466.73
2018-11-26T00:59:02.406Z,95450.66
2018-11-26T01:01:30.040Z,95454.11
2018-11-26T01:03:57.329Z,95452.98
2018-11-26T01:06:25.063Z,95445.14
2018-11-26T01:08:53.371Z,95447.36
2018-11-26T01:11:20.597Z,95453.53
2018-11-26T01:13:47.866Z,95457.52
2018-11-26T01:16:15.116Z,95373.86
2018-11-26T01:18:42.380Z,95461.27
2018-11-26T01:21:09.549Z,95456.22
2018-11-26T01:23:36.780Z,95459.70
2018-11-26T01:26:04.167Z,95458.98
2018-11-26T01:28:31.413Z,95461.39
2018-11-26T01:30:58.640Z,95467.08
2018-11-26T01:33:25.888Z,95470.95
2018-11-26T01:35:53.159Z,95467.91
2018-11-26T01:38:21.892Z,95467.06
2018-11-26T01:40:51.595Z,95408.22
2018-11-26T01:43:19.462Z,95458.42
2018-11-26T01:45:46.721Z,95462.11
2018-11-26T01:48:13.971Z,95465.88
2018-11-26T01:50:41.195Z,95465.15
2018-11-26T01:53:08.483Z,95472.73
2018-11-26T01:55:35.776Z,95478.53
2018-11-26T01:58:03.219Z,95475.95
2018-11-26T02:00:30.648Z,95469.86
2018-11-26T02:02:58.534Z,95477.12
2018-11-26T02:05:25.750Z,95474.66
2018-11-26T02:07:53.085Z,95478.34
2018-11-26T02:10:20.660Z,95477.49
2018-11-26T02:12:47.862Z,95479.63
2018-11-26T02:15:47.495Z,95468.73
2018-11-26T02:18:14.762Z,95470.80
2018-11-26T02:20:42.127Z,95462.84
2018-11-26T02:23:09.456Z,95463.42
2018-11-26T02:25:36.932Z,95457.61
2018-11-26T02:28:05.338Z,95458.53
2018-11-26T02:30:32.612Z,95456.97
2018-11-26T02:33:00.116Z,95450.21
2018-11-26T02:35:27.465Z,95448.73
2018-11-26T02:37:54.729Z,95452.34
2018-11-26T02:40:24.927Z,95452.70
2018-11-26T02:42:52.294Z,95454.81
2018-11-26T02:45:19.628Z,95452.88
2018-11-26T02:47:46.948Z,95457.33
2018-11-26T02:50:14.266Z,95450.78
2018-11-26T02:52:41.606Z,95448.86
2018-11-26T02:55:08.973Z,95447.66
2018-11-26T02:57:36.161Z,95445.13
2018-11-26T03:00:04.132Z,95440.55
2018-11-26T03:02:37.345Z,95442.85
2018-11-26T03:05:11.499Z,95447.09
2018-11-26T03:07:38.752Z,95446.44
2018-11-26T03:10:10.481Z,95443.12
2018-11-26T03:12:38.244Z,95440.73
2018-11-26T03:15:08.478Z,95440.53
2018-11-26T03:17:35.739Z,95434.65
2018-11-26T03:20:03.139Z,95435.93
2018-11-26T03:22:30.419Z,95435.56
2018-11-26T03:25:04.024Z,95434.80
2018-11-26T03:27:31.795Z,95438.03
2018-11-26T03:29:59.095Z,95437.50
2018-11-26T03:32:26.269Z,95441.82
2018-11-26T03:35:00.546Z,95439.97
2018-11-26T03:37:28.089Z,95445.70
2018-11-26T03:39:55.314Z,95441.74
2018-11-26T03:42:22.551Z,95446.81
2018-11-26T03:45:00.055Z,95443.84
2018-11-26T03:47:27.772Z,95444.41
2018-11-26T03:49:54.994Z,95446.43
2018-11-26T03:52:22.193Z,95449.20
2018-11-26T03:54:49.490Z,95448.01
2018-11-26T03:57:16.829Z,95440.19
2018-11-26T03:59:44.105Z,95442.32
2018-11-26T04:02:11.556Z,95444.62
2018-11-26T04:04:38.829Z,95447.93
2018-11-26T04:07:06.199Z,95454.30
2018-11-26T04:09:33.457Z,95454.82
2018-11-26T04:12:00.726Z,95455.66
2018-11-26T04:14:27.928Z,95448.28
2018-11-26T04:16:55.811Z,95449.20
2018-11-26T04:19:23.124Z,95445.33
2018-11-26T04:21:50.394Z,95442.40
2018-11-26T04:24:17.622Z,95450.30
2018-11-26T04:26:46.722Z,95455.18
2018-11-26T04:29:14.016Z,95445.13
2018-11-26T04:31:41.230Z,95444.03
2018-11-26T04:34:08.503Z,95434.36
2018-11-26T04:36:35.778Z,95437.03
2018-11-26T04:39:03.481Z,95440.53
2018-11-26T04:41:30.712Z,95433.44
2018-11-26T04:43:57.999Z,95362.73
2018-11-26T04:46:25.241Z,95438.89
2018-11-26T04:48:52.706Z,95433.08
2018-11-26T04:51:19.834Z,95440.53
2018-11-26T04:53:47.127Z,95428.09
2018-11-26T04:56:14.366Z,95442.39
2018-11-26T04:58:41.731Z,95440.26
2018-11-26T05:01:08.938Z,95438.69
2018-11-26T05:03:36.202Z,95444.22
2018-11-26T05:06:03.526Z,95447.36
2018-11-26T05:08:30.815Z,95449.30
2018-11-26T05:10:58.034Z,95451.23
2018-11-26T05:13:25.324Z,95443.48
2018-11-26T05:15:52.586Z,95444.78
2018-11-26T05:18:19.860Z,95447.08
2018-11-26T05:20:48.016Z,95443.04
2018-11-26T05:23:15.251Z,95447.28
2018-11-26T05:25:42.943Z,95443.86
2018-11-26T05:28:10.152Z,95441.12
2018-11-26T05:30:37.514Z,95442.77
2018-11-26T05:33:05.576Z,95438.70
2018-11-26T05:35:32.967Z,95439.62
2018-11-26T05:38:00.213Z,95439.06
2018-11-26T05:40:27.410Z,95440.27
2018-11-26T05:42:54.643Z,95442.20
2018-11-26T05:45:23.856Z,95444.22
2018-11-26T05:47:51.133Z,95451.31
2018-11-26T05:50:19.779Z,95447.73
2018-11-26T05:52:47.432Z,95452.16
2018-11-26T05:55:15.727Z,95450.87
2018-11-26T05:57:43.681Z,95448.00
2018-11-26T06:00:21.092Z,95447.00
2018-11-26T06:02:48.383Z,95448.84
2018-11-26T06:05:15.688Z,95440.35
2018-11-26T06:07:43.002Z,95413.11
2018-11-26T06:10:10.369Z,95442.48
2018-11-26T06:12:37.657Z,95442.20
2018-11-26T06:15:08.822Z,95436.76
2018-11-26T06:17:36.071Z,95442.84
2018-11-26T06:20:03.701Z,95444.22
2018-11-26T06:22:30.965Z,95446.08
2018-11-26T06:24:58.251Z,95447.00
2018-11-26T06:27:25.567Z,95445.80
2018-11-26T06:29:52.858Z,95442.93
2018-11-26T06:32:20.055Z,95447.56
2018-11-26T06:34:48.952Z,95448.65
2018-11-26T06:37:16.283Z,95451.88
2018-11-26T06:39:43.550Z,95452.72
2018-11-26T06:42:10.794Z,95450.67
2018-11-26T06:44:38.029Z,95452.52
2018-11-26T06:47:05.473Z,95454.38
2018-11-26T06:49:32.871Z,95451.31
2018-11-26T06:52:00.187Z,95457.67
2018-11-26T06:54:27.425Z,95457.23
2018-11-26T06:56:54.750Z,95454.08
2018-11-26T06:59:22.014Z,95458.88
2018-11-26T07:01:56.185Z,95457.23
2018-11-26T07:04:23.725Z,95458.61
2018-11-26T07:06:52.686Z,95453.25
2018-11-26T07:09:19.884Z,95397.64
2018-11-26T07:11:47.095Z,95461.39
2018-11-26T07:14:14.362Z,95458.45
2018-11-26T07:16:41.616Z,95463.21
2018-11-26T07:19:08.935Z,95463.97
2018-11-26T07:21:36.199Z,95472.44
2018-11-26T07:24:03.527Z,95470.59
2018-11-26T07:26:34.902Z,95468.01
2018-11-26T07:29:02.105Z,95471.72
2018-11-26T07:31:29.750Z,95472.25
2018-11-26T07:33:56.971Z,95481.28
2018-11-26T07:36:24.191Z,95477.52
2018-11-26T07:38:51.521Z,95480.55
2018-11-26T07:41:18.754Z,95484.90
2018-11-26T07:43:46.066Z,95483.69
2018-11-26T07:46:13.290Z,95489.13
2018-11-26T07:48:40.479Z,95488.48
2018-11-26T07:51:07.706Z,95487.84
2018-11-26T07:53:34.907Z,95451.98
2018-11-26T07:56:02.094Z,95485.70
2018-11-26T07:58:29.316Z,95489.13
2018-11-26T08:00:56.563Z,95491.61
2018-11-26T08:03:23.980Z,95497.86
2018-11-26T08:05:51.186Z,95489.02
2018-11-26T08:08:18.406Z,95494.56
2018-11-26T08:10:45.630Z,95492.16
2018-11-26T08:13:12.921Z,95502.48
2018-11-26T08:15:40.200Z,95498.41
2018-11-26T08:18:07.423Z,95497.41
2018-11-26T08:20:34.671Z,95495.95
2018-11-26T08:23:01.903Z,95497.88
2018-11-26T08:25:29.145Z,95501.20
2018-11-26T08:27:56.328Z,95501.11
2018-11-26T08:30:25.001Z,95501.55
2018-11-26T08:32:56.280Z,95478.53
2018-11-26T08:35:23.660Z,95508.73
2018-11-26T08:37:56.680Z,95512.44
2018-11-26T08:40:25.414Z,95515.67
2018-11-26T08:42:57.616Z,95515.30
2018-11-26T08:45:30.509Z,95519.45
2018-11-26T08:48:29.805Z,95518.89
2018-11-26T08:51:01.074Z,95522.93
2018-11-26T08:53:28.544Z,95526.27
2018-11-26T08:55:55.857Z,95529.95
2018-11-26T08:58:23.165Z,95531.80
2018-11-26T09:00:56.339Z,95533.17
2018-11-26T09:03:28.184Z,95537.41
2018-11-26T09:06:01.582Z,95536.23
2018-11-26T09:08:29.955Z,95540.19
2018-11-26T09:10:57.255Z,95540.64
2018-11-26T09:13:24.517Z,95540.11
2018-11-26T09:15:51.825Z,95542.69
2018-11-26T09:18:19.067Z,95545.92
2018-11-26T09:20:46.322Z,95550.97
2018-11-26T09:23:13.681Z,95544.23
2018-11-26T09:25:40.903Z,95557.05
2018-11-26T09:28:08.192Z,95552.09
2018-11-26T09:30:35.493Z,95555.77
2018-11-26T09:33:02.749Z,95542.28
2018-11-26T09:35:30.165Z,95558.91
2018-11-26T09:37:57.414Z,95563.88
2018-11-26T09:40:24.618Z,95565.36
2018-11-26T09:42:51.806Z,95561.16
2018-11-26T09:45:19.013Z,95563.46
2018-11-26T09:47:46.290Z,95565.40
2018-11-26T09:50:14.712Z,95569.44
2018-11-26T09:52:42.021Z,95551.28
2018-11-26T09:55:10.214Z,95566.86
2018-11-26T09:57:37.520Z,95566.49
2018-11-26T10:00:08.975Z,95568.34
2018-11-26T10:02:36.254Z,95569.16
2018-11-26T10:05:04.417Z,95568.80
2018-11-26T10:07:31.642Z,95571.29
2018-11-26T10:10:06.041Z,95568.14
2018-11-26T10:12:38.666Z,95560.96
2018-11-26T10:15:18.788Z,95569.27
2018-11-26T10:17:46.166Z,95563.46
2018-11-26T10:20:13.502Z,95559.75
2018-11-26T10:22:41.243Z,95556.89
2018-11-26T10:25:12.717Z,95557.66
2018-11-26T10:27:40.244Z,95555.88
2018-11-26T10:30:09.929Z,95554.84
2018-11-26T10:32:37.440Z,95562.41
2018-11-26T10:35:05.343Z,95562.30
2018-11-26T10:37:33.450Z,95570.45
2018-11-26T10:40:00.712Z,95567.78
2018-11-26T10:42:27.975Z,95562.70
2018-11-26T10:44:55.268Z,95564.11
2018-11-26T10:47:22.525Z,95563.74
2018-11-26T10:49:49.773Z,95570.73
2018-11-26T10:52:17.015Z,95551.92
2018-11-26T10:54:44.286Z,95564.39
2018-11-26T10:57:11.619Z,95568.34
2018-11-26T10:59:39.153Z,95566.49
2018-11-26T11:02:12.397Z,95563.91
2018-11-26T11:04:39.605Z,95548.86
2018-11-26T11:07:06.886Z,95566.05
2018-11-26T11:09:34.181Z,95565.80
2018-11-26T11:12:01.445Z,95564.79
2018-11-26T11:14:40.415Z,95568.58
2018-11-26T11:17:07.946Z,95571.06
2018-11-26T11:19:35.161Z,95565.43
2018-11-26T11:22:02.404Z,95563.69
2018-11-26T11:24:29.706Z,95560.36
2018-11-26T11:26:56.902Z,95543.97
2018-11-26T11:29:24.173Z,95562.69
2018-11-26T11:31:51.516Z,95566.27
2018-11-26T11:34:18.864Z,95557.70
2018-11-26T11:36:46.169Z,95567.57
2018-11-26T11:39:13.402Z,95562.09
2018-11-26T11:41:40.736Z,95558.58
2018-11-26T11:44:07.967Z,95563.55
2018-11-26T11:46:35.267Z,95560.97
2018-11-26T11:49:02.518Z,95562.98
2018-11-26T11:51:29.853Z,95561.24
2018-11-26T11:53:57.149Z,95561.33
2018-11-26T11:56:24.407Z,95564.39
2018-11-26T11:58:51.703Z,95567.05
2018-11-26T12:01:19.089Z,95571.20
2018-11-26T12:03:46.333Z,95568.27
2018-11-26T12:06:13.619Z,95568.27
2018-11-26T12:08:40.810Z,95569.80
2018-11-26T12:11:08.129Z,95571.29
2018-11-26T12:13:35.394Z,95575.61
2018-11-26T12:16:02.707Z,95564.80
2018-11-26T12:18:30.002Z,95571.45
2018-11-26T12:20:57.268Z,95571.09
2018-11-26T12:23:24.519Z,95566.94
2018-11-26T12:25:51.790Z,95567.33
2018-11-26T12:28:19.041Z,95567.20
2018-11-26T12:30:46.489Z,95576.39
2018-11-26T12:33:13.888Z,95567.57
2018-11-26T12:35:41.124Z,95570.16
2018-11-26T12:38:08.411Z,95568.14
2018-11-26T12:40:35.687Z,95566.86
2018-11-26T12:43:03.710Z,95565.80
2018-11-26T12:45:32.392Z,95576.86
2018-11-26T12:47:59.790Z,95501.70
2018-11-26T12:50:27.143Z,95576.95
2018-11-26T12:52:54.510Z,95582.28
2018-11-26T12:55:22.488Z,95582.94
2018-11-26T12:57:50.328Z,95586.92
2018-11-26T13:00:19.567Z,95595.75
2018-11-26T13:02:52.802Z,95593.66
2018-11-26T13:05:25.351Z,95598.55
2018-11-26T13:07:57.620Z,95598.33
2018-11-26T13:10:24.897Z,95604.63
2018-11-26T13:12:52.505Z,95595.84
2018-11-26T13:15:21.730Z,95598.53
2018-11-26T13:17:49.216Z,95599.47
2018-11-26T13:20:19.990Z,95518.13
2018-11-26T13:22:47.241Z,95599.28
2018-11-26T13:25:19.503Z,95602.59
2018-11-26T13:27:51.035Z,95598.91
2018-11-26T13:30:21.392Z,95601.14
2018-11-26T13:32:49.919Z,95596.26
2018-11-26T13:35:17.857Z,95601.50
2018-11-26T13:37:45.101Z,95606.58
2018-11-26T13:40:13.360Z,95612.39
2018-11-26T13:42:40.852Z,95605.73
2018-11-26T13:45:14.752Z,95610.42
2018-11-26T13:47:42.396Z,95620.61
2018-11-26T13:50:22.981Z,95624.70
2018-11-26T13:52:49.359Z,95604.05
2018-11-26T13:55:16.620Z,95622.12
2018-11-26T13:57:45.304Z,95621.22
2018-11-26T14:00:13.923Z,95627.88
2018-11-26T14:02:41.145Z,95622.31
2018-11-26T14:05:09.728Z,95629.16
2018-11-26T14:07:36.979Z,95631.83
2018-11-26T14:10:09.463Z,95631.45
2018-11-26T14:12:37.459Z,95634.45
2018-11-26T14:15:07.377Z,95638.54
2018-11-26T14:17:34.643Z,95645.15
2018-11-26T14:20:04.727Z,95644.47
2018-11-26T14:22:32.033Z,95640.25
2018-11-26T14:25:03.414Z,95647.90
2018-11-26T14:27:34.626Z,95650.64
2018-11-26T14:30:01.972Z,95644.22
2018-11-26T14:32:29.229Z,95651.98
2018-11-26T14:34:56.590Z,95655.08
2018-11-26T14:37:24.976Z,95656.03
2018-11-26T14:39:52.404Z,95657.30
2018-11-26T14:42:19.691Z,95656.85
2018-11-26T14:44:55.460Z,95659.70
2018-11-26T14:47:22.819Z,95662.94
2018-11-26T14:49:50.011Z,95662.63
2018-11-26T14:52:17.314Z,95668.12
2018-11-26T14:54:49.276Z,95674.30
2018-11-26T14:57:16.871Z,95675.67
2018-11-26T14:59:44.090Z,95679.36
2018-11-26T15:02:11.314Z,95680.47
2018-11-26T15:04:38.546Z,95684.67
2018-11-26T15:07:05.850Z,95691.86
2018-11-26T15:09:33.147Z,95686.15
2018-11-26T15:12:00.386Z,95692.16
2018-11-26T15:14:27.963Z,95698.02
2018-11-26T15:16:55.208Z,95694.59
2018-11-26T15:19:22.422Z,95696.55
2018-11-26T15:21:49.659Z,95694.52
2018-11-26T15:24:16.921Z,95700.93
2018-11-26T15:26:44.224Z,95703.91
2018-11-26T15:29:11.503Z,95703.20
2018-11-26T15:31:38.830Z,95704.28
2018-11-26T15:34:06.144Z,95708.33
2018-11-26T15:36:33.332Z,95711.50
2018-11-26T15:39:00.572Z,95714.05
2018-11-26T15:41:27.871Z,95716.77
2018-11-26T15:43:55.203Z,95717.69
2018-11-26T15:46:22.405Z,95716.11
2018-11-26T15:48:49.701Z,95722.07
2018-11-26T15:51:17.186Z,95720.41
2018-11-26T15:53:44.964Z,95722.73
2018-11-26T15:56:12.433Z,95728.52
2018-11-26T15:58:39.705Z,95723.98
2018-11-26T16:01:06.987Z,95726.38
2018-11-26T16:03:34.623Z,95724.98
2018-11-26T16:06:03.846Z,95727.89
2018-11-26T16:08:31.111Z,95735.63
2018-11-26T16:10:58.371Z,95736.92
2018-11-26T16:13:25.615Z,95738.03
2018-11-26T16:15:52.904Z,95734.05
2018-11-26T16:18:21.080Z,95740.37
2018-11-26T16:20:49.319Z,95744.39
2018-11-26T16:23:16.497Z,95740.28
2018-11-26T16:25:45.039Z,95747.09
2018-11-26T16:28:15.208Z,95751.52
2018-11-26T16:30:42.519Z,95751.83
2018-11-26T16:33:10.310Z,95752.50
2018-11-26T16:35:37.591Z,95759.94
2018-11-26T16:38:05.365Z,95759.49
2018-11-26T16:40:32.662Z,95766.06
2018-11-26T16:43:00.363Z,95763.67
2018-11-26T16:45:27.922Z,95767.90
2018-11-26T16:47:55.944Z,95770.30
2018-11-26T16:50:24.479Z,95775.41
2018-11-26T16:52:51.854Z,95769.31
2018-11-26T16:55:19.014Z,95773.13
2018-11-26T16:57:46.394Z,95781.93
2018-11-26T17:00:15.723Z,95776.66
2018-11-26T17:02:44.063Z,95789.31
2018-11-26T17:05:12.712Z,95800.49
2018-11-26T17:07:40.048Z,95796.45
2018-11-26T17:10:08.086Z,95800.55
2018-11-26T17:12:35.357Z,95744.81
2018-11-26T17:15:03.282Z,95807.19
2018-11-26T17:17:30.592Z,95809.45
2018-11-26T17:19:57.857Z,95814.56
2018-11-26T17:22:26.954Z,95813.52
2018-11-26T17:24:54.280Z,95817.93
2018-11-26T17:27:21.497Z,95821.25
2018-11-26T17:29:48.760Z,95820.56
2018-11-26T17:32:16.024Z,95823.20
2018-11-26T17:34:44.989Z,95818.73
2018-11-26T17:37:12.280Z,95827.76
2018-11-26T17:39:43.418Z,95830.94
2018-11-26T17:42:14.792Z,95833.45
2018-11-26T17:44:42.828Z,95834.07
2018-11-26T17:47:10.260Z,95843.02
2018-11-26T17:49:37.762Z,95841.56
2018-11-26T17:52:10.405Z,95843.97
2018-11-26T17:54:37.742Z,95848.23
2018-11-26T17:57:05.437Z,95761.62
2018-11-26T17:59:32.628Z,95851.14
2018-11-26T18:02:03.393Z,95852.30
2018-11-26T18:04:30.782Z,95855.93
2018-11-26T18:06:58.054Z,95852.61
2018-11-26T18:09:25.362Z,95860.04
2018-11-26T18:11:52.623Z,95858.61
2018-11-26T18:14:19.869Z,95863.10
2018-11-26T18:16:47.132Z,95865.38
2018-11-26T18:19:16.601Z,95867.08
2018-11-26T18:21:43.964Z,95870.70
2018-11-26T18:24:11.217Z,95865.18
2018-11-26T18:26:38.512Z,95869.48
2018-11-26T18:29:06.579Z,95872.54
2018-11-26T18:31:33.870Z,95871.08
2018-11-26T18:34:01.088Z,95881.83
2018-11-26T18:36:28.490Z,95884.03
2018-11-26T18:38:55.743Z,95867.38
2018-11-26T18:41:22.987Z,95886.84
2018-11-26T18:43:50.286Z,95885.93
2018-11-26T18:46:18.316Z,95886.23
2018-11-26T18:48:45.544Z,95890.78
2018-11-26T18:51:12.870Z,95891.05
2018-11-26T18:53:40.294Z,95898.88
2018-11-26T18:56:07.597Z,95894.82
2018-11-26T18:58:35.106Z,95898.83
2018-11-26T19:01:02.400Z,95903.67
2018-11-26T19:03:29.631Z,95900.78
2018-11-26T19:05:56.855Z,95903.94
2018-11-26T19:08:24.106Z,95901.60
2018-11-26T19:10:53.479Z,95908.22
2018-11-26T19:13:23.841Z,95909.56
2018-11-26T19:15:53.195Z,95910.75
2018-11-26T19:18:21.751Z,95912.48
2018-11-26T19:20:49.177Z,95920.99
2018-11-26T19:23:16.451Z,95903.69
2018-11-26T19:25:44.153Z,95919.30
2018-11-26T19:28:11.395Z,95919.03
2018-11-26T19:30:38.694Z,95924.63
2018-11-26T19:33:07.238Z,95923.95
2018-11-26T19:35:34.471Z,95933.41
2018-11-26T19:38:01.753Z,95931.51
2018-11-26T19:40:29.036Z,95934.84
2018-11-26T19:42:56.278Z,95939.92
2018-11-26T19:45:23.605Z,95937.83
2018-11-26T19:47:50.906Z,95935.92
2018-11-26T19:50:18.996Z,95941.08
2018-11-26T19:52:47.546Z,95942.98
2018-11-26T19:55:18.009Z,95943.34
2018-11-26T19:57:45.307Z,95936.91
2018-11-26T20:00:18.774Z,95952.38
2018-11-26T20:02:49.675Z,95948.65
2018-11-26T20:05:24.392Z,95954.18
2018-11-26T20:07:51.690Z,95953.98
2018-11-26T20:10:18.979Z,95955.81
2018-11-26T20:12:46.278Z,95958.90
2018-11-26T20:15:14.932Z,95963.75
2018-11-26T20:17:42.330Z,95968.77
2018-11-26T20:20:10.056Z,95970.20
2018-11-26T20:22:37.483Z,95964.67
2018-11-26T20:25:07.620Z,95921.11
2018-11-26T20:27:48.023Z,95978.24
2018-11-26T20:30:15.377Z,95979.91
2018-11-26T20:32:45.194Z,95980.31
2018-11-26T20:35:12.589Z,95990.77
2018-11-26T20:37:39.894Z,95993.14
2018-11-26T20:40:10.898Z,95994.50
2018-11-26T20:42:38.513Z,95999.18
2018-11-26T20:45:10.522Z,96002.54
2018-11-26T20:47:37.799Z,96004.81
2018-11-26T20:50:08.972Z,96016.25
2018-11-26T20:52:36.160Z,96017.48
2018-11-26T20:55:03.731Z,96019.88
2018-11-26T21:00:23.063Z,96027.78
2018-11-26T21:02:51.532Z,96022.09
2018-11-26T21:05:18.904Z,96028.03
2018-11-26T21:07:46.356Z,96026.20
2018-11-26T21:10:14.341Z,96034.00
2018-11-26T21:12:41.734Z,96031.80
2018-11-26T21:15:11.688Z,95986.09
2018-11-26T21:17:39.522Z,96041.88
2018-11-26T21:20:12.128Z,96043.17
2018-11-26T21:22:39.554Z,96053.80
2018-11-26T21:25:12.588Z,96050.16
2018-11-26T21:27:39.890Z,96050.77
2018-11-26T21:30:13.327Z,96058.52
2018-11-26T21:32:42.468Z,96059.42
2018-11-26T21:35:10.752Z,96061.53
2018-11-26T21:37:38.589Z,96058.04
2018-11-26T21:40:11.310Z,96057.91
2018-11-26T21:42:38.570Z,96058.82
2018-11-26T21:45:09.808Z,96062.83
2018-11-26T21:47:37.057Z,96058.88
2018-11-26T21:50:08.301Z,96059.73
2018-11-26T21:52:35.660Z,96061.09
2018-11-26T21:55:02.879Z,96058.82
2018-11-26T21:57:30.147Z,96073.38
2018-11-26T21:59:57.454Z,96065.78
2018-11-26T22:02:24.794Z,96070.03
2018-11-26T22:04:58.514Z,96077.39
2018-11-26T22:07:26.078Z,96076.27
2018-11-26T22:09:53.340Z,96073.31
2018-11-26T22:12:20.696Z,96025.80
2018-11-26T22:14:47.931Z,96079.52
2018-11-26T22:17:15.245Z,96089.55
2018-11-26T22:19:42.553Z,96091.67
2018-11-26T22:22:09.897Z,96093.11
2018-11-26T22:24:37.139Z,96092.72
2018-11-26T22:27:04.406Z,96096.98
2018-11-26T22:29:31.652Z,96098.41
2018-11-26T22:31:58.908Z,96102.28
2018-11-26T22:34:26.218Z,96103.72
2018-11-26T22:36:53.547Z,96110.48
2018-11-26T22:39:20.859Z,96111.84
2018-11-26T22:41:48.142Z,96110.40
2018-11-26T22:44:15.780Z,96115.31
2018-11-26T22:46:43.156Z,96112.60
2018-11-26T22:49:10.347Z,96113.89
2018-11-26T22:51:37.584Z,96116.09
2018-11-26T22:54:04.984Z,96117.59
2018-11-26T22:56:32.234Z,96124.23
2018-11-26T22:58:59.437Z,96119.06
2018-11-26T23:01:26.644Z,96122.33
2018-11-26T23:03:53.872Z,96118.13
2018-11-26T23:06:21.628Z,96127.91
2018-11-26T23:08:48.915Z,96122.31
2018-11-26T23:11:16.172Z,96123.00
2018-11-26T23:13:43.430Z,96126.63
2018-11-26T23:16:10.729Z,96135.28
2018-11-26T23:18:37.953Z,96133.98
2018-11-26T23:21:05.516Z,96135.66
2018-11-26T23:23:32.775Z,96140.52
2018-11-26T23:25:59.996Z,96139.75
2018-11-26T23:28:27.306Z,96140.97
2018-11-26T23:30:54.753Z,96141.59
2018-11-26T23:33:21.974Z,96137.19
2018-11-26T23:35:49.213Z,96143.85
2018-11-26T23:38:16.446Z,96143.94
2018-11-26T23:40:43.823Z,96148.66
2018-11-26T23:43:11.219Z,96146.89
2018-11-26T23:45:38.514Z,96151.46
2018-11-26T23:48:06.056Z,96143.95
2018-11-26T23:50:33.467Z,96149.55
2018-11-26T23:53:00.742Z,96146.30
2018-11-26T23:55:27.986Z,96147.71
2018-11-26T23:57:55.213Z,96155.98
